createdAt,value
2024-02-02T05:00:15.156Z,100.00
2024-02-02T05:03:17.812Z,100.00
2024-02-02T05:06:20.043Z,100.00
2024-02-02T05:09:22.594Z,100.00
2024-02-02T05:12:24.775Z,100.00
2024-02-02T05:15:27.298Z,100.00
2024-02-02T05:18:29.582Z,100.00
2024-02-02T05:21:32.243Z,100.00
2024-02-02T05:24:44.288Z,100.00
2024-02-02T05:27:48.405Z,100.00
2024-02-02T05:30:50.580Z,100.00
2024-02-02T05:33:53.107Z,100.00
2024-02-02T05:36:55.399Z,100.00
2024-02-02T05:39:57.889Z,100.00
2024-02-02T05:43:00.965Z,100.00
2024-02-02T05:46:03.649Z,100.00
2024-02-02T05:49:06.290Z,100.00
2024-02-02T05:52:10.620Z,100.00
2024-02-02T05:55:13.061Z,100.00
2024-02-02T05:58:15.608Z,100.00
2024-02-02T06:01:17.974Z,100.00
2024-02-02T06:04:20.509Z,100.00
2024-02-02T06:07:22.866Z,100.00
2024-02-02T06:10:25.394Z,100.00
2024-02-02T06:13:27.584Z,100.00
2024-02-02T06:16:30.094Z,100.00
2024-02-02T06:19:32.485Z,100.00
2024-02-02T06:22:35.714Z,100.00
2024-02-02T06:25:38.277Z,100.00
2024-02-02T06:28:40.840Z,100.00
2024-02-02T06:31:43.615Z,100.00
2024-02-02T06:34:46.298Z,100.00
2024-02-02T06:37:48.819Z,100.00
2024-02-02T06:40:51.332Z,100.00
2024-02-02T06:43:53.668Z,100.00
2024-02-02T06:46:56.313Z,100.00
2024-02-02T06:49:59.080Z,100.00
2024-02-02T06:53:03.163Z,100.00
2024-02-02T06:56:34.781Z,100.00
2024-02-02T06:59:38.132Z,100.00
2024-02-02T07:02:40.324Z,100.00
2024-02-02T07:05:44.820Z,100.00
2024-02-02T07:08:47.517Z,100.00
2024-02-02T07:11:55.712Z,100.00
2024-02-02T07:15:04.951Z,100.00
2024-02-02T07:18:34.133Z,100.00
2024-02-02T07:21:38.484Z,100.00
2024-02-02T07:24:43.825Z,100.00
2024-02-02T07:27:52.238Z,100.00
2024-02-02T07:30:59.099Z,100.00
2024-02-02T07:34:43.925Z,100.00
2024-02-02T07:37:50.222Z,100.00
2024-02-02T07:40:56.627Z,100.00
2024-02-02T07:44:01.262Z,100.00
2024-02-02T07:47:03.783Z,100.00
2024-02-02T07:50:07.362Z,100.00
2024-02-02T07:53:10.055Z,100.00
2024-02-02T07:56:14.151Z,100.00
2024-02-02T07:59:16.385Z,100.00
2024-02-02T08:02:20.019Z,100.00
2024-02-02T08:05:31.267Z,100.00
2024-02-02T08:08:34.597Z,97.05
2024-02-02T08:11:37.477Z,95.05
2024-02-02T08:14:41.034Z,93.29
2024-02-02T08:17:43.894Z,92.20
2024-02-02T08:20:47.705Z,91.01
2024-02-02T08:23:50.282Z,93.11
2024-02-02T08:26:52.556Z,93.00
2024-02-02T08:29:55.466Z,89.88
2024-02-02T08:32:58.027Z,89.55
2024-02-02T08:36:00.719Z,89.90
2024-02-02T08:39:03.737Z,95.22
2024-02-02T08:42:15.532Z,93.76
2024-02-02T08:45:43.829Z,93.14
2024-02-02T08:48:49.531Z,91.64
2024-02-02T08:51:52.501Z,91.94
2024-02-02T08:54:55.370Z,91.25
2024-02-02T08:57:57.519Z,90.24
2024-02-02T09:01:00.519Z,89.74
2024-02-02T09:04:05.706Z,87.40
2024-02-02T09:07:13.469Z,88.78
2024-02-02T09:10:37.577Z,87.30
2024-02-02T09:13:44.992Z,88.21
2024-02-02T09:16:52.531Z,89.33
2024-02-02T09:19:57.064Z,89.99
2024-02-02T09:23:00.500Z,89.23
2024-02-02T09:26:12.477Z,87.75
2024-02-02T09:29:14.960Z,85.76
2024-02-02T09:32:17.885Z,85.09
2024-02-02T09:35:41.632Z,85.28
2024-02-02T09:38:58.684Z,84.11
2024-02-02T09:42:01.279Z,82.39
2024-02-02T09:45:21.770Z,80.12
2024-02-02T09:48:48.868Z,80.15
2024-02-02T09:52:10.207Z,83.27
2024-02-02T09:55:40.876Z,83.01
2024-02-02T09:59:04.083Z,86.72
2024-02-02T10:02:27.432Z,87.28
2024-02-02T10:05:48.658Z,84.00
2024-02-02T10:08:58.813Z,81.90
2024-02-02T10:12:07.722Z,83.85
2024-02-02T10:15:12.647Z,83.80
2024-02-02T10:19:00.174Z,82.62
2024-02-02T10:22:41.207Z,82.44
2024-02-02T10:26:10.339Z,80.52
2024-02-02T10:29:28.553Z,78.14
2024-02-02T10:33:07.425Z,78.02
2024-02-02T10:36:28.308Z,77.48
2024-02-02T10:39:57.294Z,79.86
2024-02-02T10:43:36.794Z,78.73
2024-02-02T10:46:46.877Z,75.80
2024-02-02T10:50:12.504Z,75.36
2024-02-02T10:53:44.851Z,76.10
2024-02-02T10:57:09.813Z,75.94
2024-02-02T11:00:25.674Z,74.79
2024-02-02T11:03:46.205Z,73.19
2024-02-02T11:07:23.731Z,73.13
2024-02-02T11:10:32.392Z,74.75
2024-02-02T11:14:05.111Z,73.39
2024-02-02T11:17:27.398Z,69.61
2024-02-02T11:20:40.070Z,61.32
2024-02-02T11:23:52.811Z,55.81
2024-02-02T11:27:05.367Z,50.67
2024-02-02T11:30:18.155Z,44.65
2024-02-02T11:33:39.684Z,33.33
2024-02-02T11:36:59.755Z,29.55
2024-02-02T11:40:09.434Z,28.18
2024-02-02T11:43:12.964Z,24.54
2024-02-02T11:46:18.749Z,27.66
2024-02-02T11:49:30.081Z,26.17
2024-02-02T11:52:40.836Z,25.96
2024-02-02T11:55:46.675Z,25.98
2024-02-02T11:58:57.544Z,23.98
2024-02-02T12:02:14.707Z,22.66
2024-02-02T12:05:21.838Z,24.00
2024-02-02T12:08:33.374Z,24.86
2024-02-02T12:11:44.584Z,22.64
2024-02-02T12:14:54.070Z,24.73
2024-02-02T12:17:58.576Z,27.46
2024-02-02T12:21:02.619Z,27.61
2024-02-02T12:24:05.546Z,34.32
2024-02-02T12:27:09.394Z,42.87
2024-02-02T12:30:13.166Z,50.70
2024-02-02T12:33:15.842Z,54.96
2024-02-02T12:36:22.379Z,58.21
2024-02-02T12:39:24.735Z,60.42
2024-02-02T12:42:27.325Z,61.45
2024-02-02T12:45:32.521Z,62.83
2024-02-02T12:48:35.259Z,64.05
2024-02-02T12:51:37.628Z,65.92
2024-02-02T12:54:41.950Z,65.32
2024-02-02T12:57:44.249Z,66.79
2024-02-02T13:00:47.054Z,66.43
2024-02-02T13:03:49.594Z,66.92
2024-02-02T13:06:52.409Z,65.95
2024-02-02T13:09:58.769Z,65.30
2024-02-02T13:13:14.232Z,65.29
2024-02-02T13:16:24.324Z,65.17
2024-02-02T13:19:37.792Z,65.64
2024-02-02T13:22:41.707Z,66.79
2024-02-02T13:25:44.292Z,68.05
2024-02-02T13:28:54.005Z,67.72
2024-02-02T13:31:56.737Z,70.71
2024-02-02T13:35:00.656Z,70.50
2024-02-02T13:38:04.131Z,70.75
2024-02-02T13:41:07.939Z,69.80
2024-02-02T13:44:13.246Z,72.21
2024-02-02T13:47:29.614Z,72.26
2024-02-02T13:50:51.731Z,72.33
2024-02-02T13:53:54.544Z,72.66
2024-02-02T13:56:57.180Z,71.03
2024-02-02T14:00:00.830Z,71.52
2024-02-02T14:03:11.596Z,71.45
2024-02-02T14:06:15.056Z,73.01
2024-02-02T14:09:22.655Z,74.12
2024-02-02T14:12:25.239Z,74.83
2024-02-02T14:15:27.548Z,77.48
2024-02-02T14:18:30.800Z,80.43
2024-02-02T14:21:35.347Z,81.61
2024-02-02T14:24:48.299Z,82.08
2024-02-02T14:27:50.623Z,82.49
2024-02-02T14:31:01.785Z,81.75
2024-02-02T14:34:04.617Z,81.79
2024-02-02T14:37:09.593Z,80.54
2024-02-02T14:40:12.554Z,81.70
2024-02-02T14:43:15.915Z,81.59
2024-02-02T14:46:21.822Z,81.37
2024-02-02T14:49:26.174Z,80.40
2024-02-02T14:52:28.899Z,81.54
2024-02-02T14:55:33.780Z,82.71
2024-02-02T14:58:36.375Z,83.35
2024-02-02T15:01:40.381Z,84.64
2024-02-02T15:04:42.661Z,84.50
2024-02-02T15:07:45.260Z,85.51
2024-02-02T15:10:48.549Z,87.04
2024-02-02T15:13:50.996Z,88.00
2024-02-02T15:16:53.174Z,89.21
2024-02-02T15:19:57.910Z,90.64
2024-02-02T15:23:00.257Z,91.49
2024-02-02T15:26:02.937Z,91.08
2024-02-02T15:29:05.675Z,92.52
2024-02-02T15:32:08.197Z,93.41
2024-02-02T15:35:14.626Z,94.63
2024-02-02T15:38:17.232Z,94.89
2024-02-02T15:41:19.616Z,95.86
2024-02-02T15:44:22.393Z,96.25
2024-02-02T15:47:25.353Z,96.81
2024-02-02T15:50:27.845Z,97.91
2024-02-02T15:53:29.973Z,99.24
2024-02-02T15:56:32.772Z,100.00
2024-02-02T15:59:34.919Z,100.00
2024-02-02T16:02:37.573Z,100.00
2024-02-02T16:05:40.076Z,100.00
2024-02-02T16:08:42.234Z,100.00
2024-02-02T16:11:44.710Z,100.00
2024-02-02T16:14:46.915Z,100.00
2024-02-02T16:17:49.472Z,100.00
2024-02-02T16:20:51.695Z,100.00
2024-02-02T16:23:54.142Z,100.00
2024-02-02T16:26:56.320Z,100.00
2024-02-02T16:29:58.925Z,100.00
2024-02-02T16:33:02.648Z,100.00
2024-02-02T16:36:05.927Z,99.54
2024-02-02T16:39:15.293Z,100.00
2024-02-02T16:42:18.395Z,98.63
